createdAt,value
2022-08-10T00:01:54.560Z,58.00
2022-08-10T00:04:24.770Z,57.94
2022-08-10T00:06:55.304Z,55.91
2022-08-10T00:09:24.431Z,55.08
2022-08-10T00:11:52.700Z,55.82
2022-08-10T00:14:21.182Z,56.86
2022-08-10T00:16:49.520Z,58.68
2022-08-10T00:19:18.282Z,57.54
2022-08-10T00:21:47.446Z,58.89
2022-08-10T00:24:16.150Z,61.80
2022-08-10T00:27:52.401Z,61.95
2022-08-10T00:29:33.140Z,62.22
2022-08-10T00:32:01.777Z,61.56
2022-08-10T00:34:34.169Z,63.15
2022-08-10T00:37:02.427Z,63.15
2022-08-10T00:39:35.874Z,63.40
2022-08-10T00:42:08.630Z,59.78
2022-08-10T00:44:47.754Z,60.67
2022-08-10T00:47:35.510Z,63.02
2022-08-10T00:50:08.030Z,60.34
2022-08-10T00:52:38.129Z,61.64
2022-08-10T00:55:07.187Z,61.70
2022-08-10T00:57:35.682Z,62.75
2022-08-10T01:00:07.417Z,64.50
2022-08-10T01:02:36.517Z,63.54
2022-08-10T01:05:11.442Z,60.31
2022-08-10T01:07:55.911Z,60.38
2022-08-10T01:12:37.548Z,65.89
2022-08-10T01:14:26.605Z,64.19
2022-08-10T01:17:13.361Z,62.23
2022-08-10T01:20:30.352Z,64.67
2022-08-10T01:23:30.688Z,61.03
2022-08-10T01:26:30.656Z,60.62
2022-08-10T01:29:48.155Z,58.91
2022-08-10T01:32:36.488Z,62.11
2022-08-10T01:35:34.498Z,61.71
2022-08-10T01:38:15.542Z,60.98
2022-08-10T01:40:52.139Z,61.27
2022-08-10T01:43:21.819Z,59.88
2022-08-10T01:45:57.735Z,61.05
2022-08-10T01:48:43.898Z,66.22
2022-08-10T01:51:14.998Z,67.91
2022-08-10T01:54:05.009Z,66.19
2022-08-10T01:56:42.297Z,65.65
2022-08-10T01:59:37.222Z,68.69
2022-08-10T02:02:11.086Z,70.02
2022-08-10T02:04:46.070Z,66.84
2022-08-10T02:07:20.064Z,68.75
2022-08-10T02:09:56.435Z,68.70
2022-08-10T02:12:30.482Z,66.83
2022-08-10T02:15:10.638Z,66.93
2022-08-10T02:18:00.700Z,65.44
2022-08-10T02:20:48.782Z,63.03
2022-08-10T02:23:27.642Z,63.10
2022-08-10T02:26:00.733Z,60.39
2022-08-10T02:28:33.812Z,59.78
2022-08-10T02:31:11.985Z,63.30
2022-08-10T02:33:57.721Z,63.74
2022-08-10T02:36:34.208Z,64.67
2022-08-10T02:39:07.423Z,67.73
2022-08-10T02:45:21.246Z,63.43
2022-08-10T02:45:31.757Z,65.62
2022-08-10T02:48:12.778Z,68.35
2022-08-10T02:50:47.447Z,66.61
2022-08-10T02:53:51.653Z,70.53
2022-08-10T02:56:38.261Z,69.74
2022-08-10T02:59:17.467Z,66.50
2022-08-10T03:01:51.149Z,65.24
2022-08-10T03:04:54.581Z,64.72
2022-08-10T03:07:43.456Z,63.35
2022-08-10T03:10:21.918Z,62.71
2022-08-10T03:12:57.616Z,63.24
2022-08-10T03:15:29.495Z,64.81
2022-08-10T03:17:59.924Z,67.36
2022-08-10T03:20:39.693Z,63.81
2022-08-10T03:23:19.871Z,62.30
2022-08-10T03:25:54.870Z,62.20
2022-08-10T03:28:29.977Z,61.94
2022-08-10T03:31:00.950Z,61.43
2022-08-10T03:33:34.545Z,62.24
2022-08-10T03:36:42.054Z,61.78
2022-08-10T03:38:52.393Z,63.05
2022-08-10T03:41:38.089Z,62.56
2022-08-10T03:44:10.528Z,63.48
2022-08-10T03:46:44.051Z,64.22
2022-08-10T03:49:13.654Z,63.52
2022-08-10T03:51:42.217Z,64.28
2022-08-10T03:54:10.510Z,63.92
2022-08-10T03:56:40.903Z,64.36
2022-08-10T03:59:13.988Z,63.24
2022-08-10T04:02:46.226Z,61.94
2022-08-10T04:04:35.568Z,63.14
2022-08-10T04:07:04.928Z,64.26
2022-08-10T04:09:54.378Z,63.34
2022-08-10T04:12:24.905Z,63.91
2022-08-10T04:14:53.858Z,63.83
2022-08-10T04:18:03.444Z,63.48
2022-08-10T04:20:26.226Z,64.26
2022-08-10T04:23:13.330Z,67.53
2022-08-10T04:25:42.302Z,65.51
2022-08-10T04:28:12.101Z,64.98
2022-08-10T04:30:43.624Z,66.21
2022-08-10T04:33:18.082Z,64.66
2022-08-10T04:35:48.123Z,65.13
2022-08-10T04:38:19.033Z,65.11
2022-08-10T04:40:47.703Z,64.95
2022-08-10T04:43:16.504Z,67.48
2022-08-10T04:45:48.580Z,66.67
2022-08-10T04:48:40.314Z,66.23
2022-08-10T04:51:19.107Z,65.28
2022-08-10T04:54:04.905Z,64.52
2022-08-10T04:56:37.854Z,64.85
2022-08-10T04:59:09.501Z,68.35
2022-08-10T05:02:29.770Z,68.40
2022-08-10T05:04:35.325Z,67.57
2022-08-10T05:07:10.115Z,66.00
2022-08-10T05:10:01.598Z,66.20
2022-08-10T05:12:36.185Z,66.94
2022-08-10T05:15:15.734Z,67.12
2022-08-10T05:18:08.548Z,66.36
2022-08-10T05:20:34.883Z,69.23
2022-08-10T05:23:03.114Z,69.71
2022-08-10T05:25:33.004Z,70.25
2022-08-10T05:28:07.243Z,69.05
2022-08-10T05:30:35.440Z,68.45
2022-08-10T05:33:08.526Z,67.47
2022-08-10T05:35:52.441Z,65.99
2022-08-10T05:38:28.043Z,69.62
2022-08-10T05:40:57.654Z,67.57
2022-08-10T05:43:25.998Z,67.36
2022-08-10T05:46:17.163Z,67.68
2022-08-10T05:48:58.812Z,66.66
2022-08-10T05:51:30.518Z,66.51
2022-08-10T05:54:06.126Z,67.76
2022-08-10T05:56:55.063Z,67.74
2022-08-10T06:00:31.037Z,66.44
2022-08-10T06:02:36.540Z,68.96
2022-08-10T06:05:07.396Z,71.20
2022-08-10T06:07:43.093Z,67.94
2022-08-10T06:10:31.035Z,69.34
2022-08-10T06:13:30.153Z,70.49
2022-08-10T06:16:07.500Z,68.94
2022-08-10T06:18:37.230Z,69.71
2022-08-10T06:21:07.038Z,67.00
2022-08-10T06:23:37.814Z,65.84
2022-08-10T06:26:08.490Z,66.81
2022-08-10T06:29:03.158Z,67.98
2022-08-10T06:31:47.749Z,67.99
2022-08-10T06:34:43.485Z,67.87
2022-08-10T06:37:15.720Z,66.91
2022-08-10T06:39:45.334Z,66.59
2022-08-10T06:42:29.326Z,67.35
2022-08-10T06:45:07.823Z,67.11
2022-08-10T06:47:50.459Z,65.67
2022-08-10T06:50:45.270Z,65.62
2022-08-10T06:53:52.260Z,64.93
2022-08-10T06:56:38.086Z,63.34
2022-08-10T06:59:38.328Z,61.82
2022-08-10T07:02:21.758Z,61.41
2022-08-10T07:05:05.729Z,61.51
2022-08-10T07:07:39.592Z,60.30
2022-08-10T07:10:10.221Z,59.65
2022-08-10T07:12:39.914Z,60.11
2022-08-10T07:15:12.747Z,59.81
2022-08-10T07:17:41.827Z,58.99
2022-08-10T07:20:18.246Z,59.15
2022-08-10T07:23:08.307Z,59.03
2022-08-10T07:25:45.857Z,58.60
2022-08-10T07:28:15.655Z,58.22
2022-08-10T07:30:45.959Z,57.81
2022-08-10T07:33:19.319Z,58.68
2022-08-10T07:35:50.335Z,57.96
2022-08-10T07:38:24.620Z,57.02
2022-08-10T07:40:55.770Z,55.82
2022-08-10T07:43:27.372Z,56.13
2022-08-10T07:45:59.082Z,55.45
2022-08-10T07:48:40.909Z,56.04
2022-08-10T07:51:12.934Z,55.21
2022-08-10T07:53:51.848Z,54.51
2022-08-10T07:56:47.933Z,53.94
2022-08-10T07:59:41.687Z,52.78
2022-08-10T08:02:28.970Z,52.75
2022-08-10T08:05:04.644Z,51.62
2022-08-10T08:07:34.908Z,52.03
2022-08-10T08:10:04.821Z,51.86
2022-08-10T08:12:37.293Z,50.37
2022-08-10T08:16:18.095Z,50.09
2022-08-10T08:18:05.646Z,48.84
2022-08-10T08:20:35.390Z,50.12
2022-08-10T08:24:10.409Z,49.50
2022-08-10T08:25:56.945Z,49.55
2022-08-10T08:28:28.339Z,48.43
2022-08-10T08:30:59.004Z,47.94
2022-08-10T08:33:41.644Z,49.94
2022-08-10T08:36:18.602Z,47.79
2022-08-10T08:38:47.751Z,46.63
2022-08-10T08:41:29.837Z,45.50
2022-08-10T08:44:35.749Z,43.28
2022-08-10T08:48:06.485Z,43.02
2022-08-10T08:51:12.161Z,42.23
2022-08-10T08:54:00.960Z,41.33
2022-08-10T08:57:23.715Z,38.14
2022-08-10T09:00:42.970Z,41.45
2022-08-10T09:03:39.727Z,42.95
2022-08-10T09:06:52.520Z,43.26
2022-08-10T09:09:52.261Z,41.85
2022-08-10T09:13:04.774Z,38.54
2022-08-10T09:16:00.017Z,37.85
2022-08-10T09:18:37.754Z,36.81
2022-08-10T09:21:43.123Z,35.94
2022-08-10T09:24:52.104Z,34.41
2022-08-10T09:27:49.257Z,33.85
2022-08-10T09:31:22.097Z,34.82
2022-08-10T09:36:22.958Z,34.76
2022-08-10T09:37:39.985Z,36.86
2022-08-10T09:41:00.161Z,35.42
2022-08-10T09:43:41.408Z,33.95
2022-08-10T09:47:06.919Z,32.54
2022-08-10T09:49:54.722Z,32.19
2022-08-10T09:53:07.802Z,29.63
2022-08-10T09:56:28.937Z,32.01
2022-08-10T10:00:16.981Z,30.78
2022-08-10T10:03:06.562Z,32.24
2022-08-10T10:05:51.334Z,30.64
2022-08-10T10:09:11.053Z,31.18
2022-08-10T10:11:44.514Z,29.92
2022-08-10T10:14:58.055Z,29.40
2022-08-10T10:18:00.354Z,31.30
2022-08-10T10:20:58.681Z,33.79
2022-08-10T10:24:22.413Z,30.24
2022-08-10T10:27:16.152Z,31.71
2022-08-10T10:30:07.807Z,29.20
2022-08-10T10:33:00.476Z,28.37
2022-08-10T10:35:55.094Z,28.16
2022-08-10T10:38:32.507Z,27.62
2022-08-10T10:42:03.903Z,28.18
2022-08-10T10:44:42.263Z,30.05
2022-08-10T10:47:28.879Z,30.36
2022-08-10T10:50:13.110Z,27.17
2022-08-10T10:53:12.596Z,27.87
2022-08-10T10:56:14.670Z,26.06
2022-08-10T10:59:01.251Z,27.39
2022-08-10T11:02:06.572Z,29.06
2022-08-10T11:05:02.831Z,27.74
2022-08-10T11:07:55.843Z,29.30
2022-08-10T11:10:46.478Z,30.54
2022-08-10T11:14:26.463Z,27.34
2022-08-10T11:17:20.198Z,26.94
2022-08-10T11:20:15.416Z,28.12
2022-08-10T11:23:08.344Z,28.84
2022-08-10T11:26:01.303Z,28.54
2022-08-10T11:28:41.076Z,28.16
2022-08-10T11:31:43.459Z,28.77
2022-08-10T11:35:11.486Z,27.44
2022-08-10T11:38:28.512Z,28.57
2022-08-10T11:42:09.714Z,26.21
2022-08-10T11:44:31.086Z,26.84
2022-08-10T11:47:13.063Z,28.19
2022-08-10T11:49:55.853Z,27.89
2022-08-10T11:52:48.868Z,25.89
2022-08-10T11:55:22.924Z,24.87
2022-08-10T11:58:25.895Z,25.72
2022-08-10T12:01:05.184Z,26.73
2022-08-10T12:03:38.950Z,26.46
2022-08-10T12:06:13.624Z,27.94
2022-08-10T12:10:07.520Z,26.61
2022-08-10T12:11:36.044Z,25.99
2022-08-10T12:14:25.835Z,26.95
2022-08-10T12:17:44.740Z,26.28
2022-08-10T12:20:33.417Z,24.80
2022-08-10T12:23:39.270Z,23.50
2022-08-10T12:26:28.295Z,24.61
2022-08-10T12:29:30.214Z,23.88
2022-08-10T12:32:25.406Z,24.55
2022-08-10T12:35:07.534Z,23.28
2022-08-10T12:38:00.923Z,23.04
2022-08-10T12:40:42.259Z,23.88
2022-08-10T12:44:06.742Z,22.08
2022-08-10T12:46:40.324Z,22.54
2022-08-10T12:50:18.662Z,23.17
2022-08-10T12:52:51.824Z,23.82
2022-08-10T12:55:22.717Z,26.99
2022-08-10T12:57:57.619Z,25.48
2022-08-10T13:00:33.746Z,24.00
2022-08-10T13:03:06.019Z,25.26
2022-08-10T13:06:01.875Z,23.37
2022-08-10T13:08:45.015Z,23.23
2022-08-10T13:11:18.522Z,23.98
2022-08-10T13:14:24.031Z,22.89
2022-08-10T13:16:58.757Z,23.05
2022-08-10T13:19:54.646Z,22.88
2022-08-10T13:22:28.641Z,23.41
2022-08-10T13:25:06.181Z,23.91
2022-08-10T13:28:00.482Z,22.89
2022-08-10T13:30:37.328Z,22.49
2022-08-10T13:33:11.179Z,21.72
2022-08-10T13:35:44.180Z,21.88
2022-08-10T13:38:19.596Z,21.69
2022-08-10T13:40:51.575Z,23.42
2022-08-10T13:43:22.349Z,21.62
2022-08-10T13:45:54.467Z,22.64
2022-08-10T13:48:26.741Z,21.93
2022-08-10T13:51:01.602Z,21.76
2022-08-10T13:53:35.441Z,21.83
2022-08-10T13:56:08.406Z,21.27
2022-08-10T13:58:41.480Z,22.48
2022-08-10T14:01:31.662Z,21.73
2022-08-10T14:04:01.788Z,22.81
2022-08-10T14:06:32.381Z,23.09
2022-08-10T14:09:08.910Z,21.99
2022-08-10T14:11:41.925Z,22.35
2022-08-10T14:14:21.351Z,22.99
2022-08-10T14:16:51.596Z,23.82
2022-08-10T14:19:26.631Z,22.83
2022-08-10T14:21:56.675Z,24.12
2022-08-10T14:24:31.592Z,23.87
2022-08-10T14:27:10.216Z,23.66
2022-08-10T14:29:49.552Z,24.99
2022-08-10T14:32:22.630Z,23.00
2022-08-10T14:36:14.896Z,23.29
2022-08-10T14:38:06.026Z,22.62
2022-08-10T14:40:43.964Z,25.07
2022-08-10T14:43:28.705Z,23.34
2022-08-10T14:46:07.527Z,23.33
2022-08-10T14:48:43.289Z,22.13
2022-08-10T14:51:18.101Z,22.40
2022-08-10T14:53:55.702Z,22.99
2022-08-10T14:56:32.729Z,22.50
2022-08-10T14:59:07.631Z,21.72
2022-08-10T15:02:00.900Z,21.84
2022-08-10T15:04:37.454Z,22.97
2022-08-10T15:07:11.834Z,21.72
2022-08-10T15:10:00.864Z,22.38
2022-08-10T15:12:38.267Z,22.50
2022-08-10T15:15:16.389Z,24.00
2022-08-10T15:17:52.776Z,24.32
2022-08-10T15:20:26.120Z,22.62
2022-08-10T15:23:30.918Z,22.36
2022-08-10T15:26:11.249Z,21.06
2022-08-10T15:29:24.155Z,22.35
2022-08-10T15:31:58.929Z,23.50
2022-08-10T15:34:48.799Z,23.78
2022-08-10T15:37:36.421Z,23.00
2022-08-10T15:40:24.951Z,24.48
2022-08-10T15:43:24.476Z,25.35
2022-08-10T15:46:33.726Z,23.25
2022-08-10T15:49:10.781Z,23.14
2022-08-10T15:51:56.445Z,23.99
2022-08-10T15:54:34.438Z,23.43
2022-08-10T15:57:09.757Z,23.96
2022-08-10T15:59:50.463Z,24.56
2022-08-10T16:02:32.478Z,24.03
2022-08-10T16:05:16.910Z,23.72
2022-08-10T16:08:05.687Z,23.56
2022-08-10T16:10:53.269Z,23.84
2022-08-10T16:13:51.015Z,23.60
2022-08-10T16:16:20.466Z,23.07
2022-08-10T16:18:53.950Z,22.71
2022-08-10T16:21:26.652Z,23.03
2022-08-10T16:24:15.236Z,24.23
2022-08-10T16:26:50.375Z,23.46
2022-08-10T16:29:26.075Z,23.62
2022-08-10T16:31:59.998Z,22.69
2022-08-10T16:34:32.976Z,22.91
2022-08-10T16:37:09.652Z,22.64
2022-08-10T16:39:57.942Z,23.01
2022-08-10T16:42:41.792Z,24.00
2022-08-10T16:45:22.303Z,24.96
2022-08-10T16:47:53.824Z,25.35
2022-08-10T16:50:37.669Z,25.08
2022-08-10T16:53:12.769Z,24.52
2022-08-10T16:55:52.816Z,25.15
2022-08-10T16:58:29.037Z,24.60
2022-08-10T17:01:12.035Z,25.24
2022-08-10T17:04:06.114Z,25.90
2022-08-10T17:06:53.880Z,24.24
2022-08-10T17:09:31.901Z,24.17
2022-08-10T17:12:10.619Z,23.75
2022-08-10T17:14:42.636Z,24.74
2022-08-10T17:17:25.972Z,24.58
2022-08-10T17:20:31.413Z,24.95
2022-08-10T17:22:55.020Z,24.94
2022-08-10T17:25:48.840Z,24.27
2022-08-10T17:28:34.626Z,24.90
2022-08-10T17:31:42.190Z,24.51
2022-08-10T17:34:29.430Z,24.52
2022-08-10T17:37:05.537Z,24.54
2022-08-10T17:39:51.986Z,24.44
2022-08-10T17:42:22.691Z,24.17
2022-08-10T17:44:54.551Z,23.87
2022-08-10T17:47:27.277Z,23.38
2022-08-10T17:50:00.155Z,24.49
2022-08-10T17:52:33.188Z,25.04
2022-08-10T17:55:05.707Z,26.55
2022-08-10T17:57:39.478Z,26.09
2022-08-10T18:00:14.329Z,26.76
2022-08-10T18:02:49.095Z,26.55
2022-08-10T18:05:19.653Z,26.59
2022-08-10T18:07:52.880Z,26.21
2022-08-10T18:10:22.457Z,26.23
2022-08-10T18:12:56.390Z,26.37
2022-08-10T18:15:28.173Z,26.41
2022-08-10T18:18:02.700Z,25.81
2022-08-10T18:20:37.331Z,25.71
2022-08-10T18:23:09.416Z,25.60
2022-08-10T18:25:44.553Z,25.83
2022-08-10T18:28:20.021Z,25.73
2022-08-10T18:30:52.036Z,26.10
2022-08-10T18:33:31.925Z,26.31
2022-08-10T18:36:09.727Z,26.44
2022-08-10T18:38:50.026Z,26.50
2022-08-10T18:41:28.557Z,26.87
2022-08-10T18:44:11.702Z,27.24
2022-08-10T18:46:55.605Z,27.73
2022-08-10T18:49:41.305Z,26.83
2022-08-10T18:52:14.876Z,27.44
2022-08-10T18:54:48.610Z,28.09
2022-08-10T18:57:56.907Z,27.75
2022-08-10T19:00:49.186Z,29.06
2022-08-10T19:03:58.744Z,28.81
2022-08-10T19:07:19.005Z,28.62
2022-08-10T19:10:26.133Z,29.77
2022-08-10T19:13:29.313Z,29.43
2022-08-10T19:16:04.262Z,29.11
2022-08-10T19:18:33.668Z,29.75
2022-08-10T19:21:19.049Z,29.06
2022-08-10T19:24:03.014Z,29.62
2022-08-10T19:27:03.725Z,29.55
2022-08-10T19:30:16.360Z,29.75
2022-08-10T19:33:33.300Z,30.74
2022-08-10T19:36:23.094Z,31.05
2022-08-10T19:39:21.164Z,31.76
2022-08-10T19:42:33.753Z,31.79
2022-08-10T19:45:55.878Z,31.88
2022-08-10T19:49:02.587Z,32.87
2022-08-10T19:52:00.878Z,32.77
2022-08-10T19:55:05.326Z,32.48
2022-08-10T19:57:39.211Z,33.59
2022-08-10T20:00:19.085Z,33.01
2022-08-10T20:03:21.343Z,33.79
2022-08-10T20:06:12.913Z,33.81
2022-08-10T20:09:12.435Z,33.62
2022-08-10T20:11:47.455Z,34.41
2022-08-10T20:14:33.629Z,35.22
2022-08-10T20:17:51.557Z,35.99
2022-08-10T20:20:35.248Z,36.06
2022-08-10T20:23:23.583Z,36.30
2022-08-10T20:26:21.377Z,36.37
2022-08-10T20:29:16.366Z,37.07
2022-08-10T20:32:11.364Z,38.76
2022-08-10T20:34:49.489Z,38.20
2022-08-10T20:37:45.268Z,37.85
2022-08-10T20:40:39.344Z,39.18
2022-08-10T20:43:32.233Z,41.28
2022-08-10T20:46:30.167Z,41.42
2022-08-10T20:49:15.837Z,40.96
2022-08-10T20:52:02.190Z,40.71
2022-08-10T20:54:58.168Z,40.75
2022-08-10T20:58:17.964Z,41.97
2022-08-10T21:01:20.219Z,42.18
2022-08-10T21:04:16.406Z,42.73
2022-08-10T21:08:00.367Z,42.45
2022-08-10T21:10:52.704Z,42.70
2022-08-10T21:13:44.231Z,42.54
2022-08-10T21:16:32.989Z,43.36
2022-08-10T21:19:37.911Z,43.82
2022-08-10T21:22:18.953Z,42.92
2022-08-10T21:25:02.190Z,43.06
2022-08-10T21:27:58.265Z,43.20
2022-08-10T21:30:41.431Z,43.98
2022-08-10T21:33:37.030Z,43.98
2022-08-10T21:36:24.680Z,43.54
2022-08-10T21:39:10.581Z,43.67
2022-08-10T21:42:23.092Z,43.61
2022-08-10T21:45:57.832Z,41.65
2022-08-10T21:49:06.674Z,42.52
2022-08-10T21:52:16.780Z,44.60
2022-08-10T21:55:16.715Z,42.62
2022-08-10T21:58:22.659Z,41.43
2022-08-10T22:01:39.201Z,43.27
2022-08-10T22:04:27.086Z,42.90
2022-08-10T22:07:21.355Z,44.08
2022-08-10T22:10:16.666Z,44.11
2022-08-10T22:16:18.625Z,43.27
2022-08-10T22:19:15.148Z,43.64
2022-08-10T22:22:36.222Z,44.28
2022-08-10T22:25:53.208Z,43.01
2022-08-10T22:28:40.235Z,43.75
2022-08-10T22:31:25.832Z,44.05
2022-08-10T22:31:50.265Z,44.23
2022-08-10T22:35:07.063Z,44.00
2022-08-10T22:38:44.246Z,43.70
2022-08-10T22:41:56.705Z,44.75
2022-08-10T22:44:52.402Z,43.77
2022-08-10T22:47:41.512Z,43.92
2022-08-10T22:50:17.609Z,44.71
2022-08-10T22:53:02.971Z,44.69
2022-08-10T22:55:58.344Z,44.33
2022-08-10T22:58:29.766Z,44.81
2022-08-10T23:01:39.935Z,43.77
2022-08-10T23:04:26.153Z,43.46
2022-08-10T23:07:09.494Z,45.62
2022-08-10T23:09:42.258Z,45.49
2022-08-10T23:12:18.278Z,44.71
2022-08-10T23:14:59.191Z,44.21
2022-08-10T23:18:00.795Z,44.74
2022-08-10T23:20:36.676Z,45.25
2022-08-10T23:23:10.242Z,44.52
2022-08-10T23:25:56.525Z,45.26
2022-08-10T23:28:38.729Z,44.27
2022-08-10T23:31:58.228Z,44.39
2022-08-10T23:34:08.463Z,45.14
2022-08-10T23:36:40.674Z,45.06
2022-08-10T23:39:27.416Z,45.55
2022-08-10T23:42:12.432Z,45.20
2022-08-10T23:44:47.608Z,45.10
2022-08-10T23:47:27.062Z,46.33
2022-08-10T23:49:58.989Z,46.05
2022-08-10T23:52:34.945Z,44.61
2022-08-10T23:55:11.454Z,44.86
2022-08-10T23:57:45.499Z,45.40
